DRRM

Maradi Airport

Maradi, Niger
METAR DRRM 190800Z 18004KT CAVOK 27/22 Q1015
Observed Flight Rules
Sep-19 @ 08:00 UTC (an hour ago) Visual Flight Rules
Wind Visibility Clouds
180° at 4 knots 10,000+ meters
  • Clear skies
Temperatures Readings
Current 27°C / 81°F
Dewpoint 22°C / 72°F
Humidity 74%
Altimeter 29.97" Hg
Pressure 1015 hPa
Elevation 373
METAR DRRM 190800Z 18004KT CAVOK 27/22 Q1015
Observed Flight Rules
Sep-19 @ 08:00 UTC
(an hour ago)
VFR
Wind Visibility
180° at 4 knots 10,000+ meters
Clouds
  • Clear skies
Temperature Dewpoint
27°C / 81°F 22°C / 72°F
Humidity Altimeter Pressure
74% 29.97" Hg 1015 hPa